createdAt,value
2022-09-23T00:01:50.199Z,7.75
2022-09-23T00:04:19.230Z,10.02
2022-09-23T00:06:48.458Z,7.95
2022-09-23T00:09:17.459Z,6.50
2022-09-23T00:11:46.468Z,8.02
2022-09-23T00:14:15.767Z,9.27
2022-09-23T00:16:46.187Z,5.75
2022-09-23T00:19:15.267Z,7.32
2022-09-23T00:21:44.496Z,8.90
2022-09-23T00:24:13.635Z,5.30
2022-09-23T00:26:42.677Z,6.30
2022-09-23T00:29:12.184Z,8.35
2022-09-23T00:31:41.176Z,7.00
2022-09-23T00:34:13.596Z,5.15
2022-09-23T00:36:43.753Z,6.80
2022-09-23T00:41:42.085Z,5.77
2022-09-23T00:44:46.279Z,5.60
2022-09-23T00:47:20.525Z,5.20
2022-09-23T00:50:01.780Z,6.40
2022-09-23T00:52:32.664Z,9.00
2022-09-23T00:55:06.509Z,11.02
2022-09-23T00:57:37.195Z,10.55
2022-09-23T01:00:08.356Z,10.70
2022-09-23T01:02:39.515Z,6.57
2022-09-23T01:05:11.202Z,11.02
2022-09-23T01:07:40.279Z,9.85
2022-09-23T01:10:13.576Z,11.60
2022-09-23T01:13:08.368Z,7.72
2022-09-23T01:15:46.576Z,6.72
2022-09-23T01:18:28.842Z,10.95
2022-09-23T01:21:16.421Z,8.70
2022-09-23T01:24:27.184Z,8.13
2022-09-23T01:27:11.299Z,7.80
2022-09-23T01:30:12.062Z,6.80
2022-09-23T01:32:54.478Z,10.05
2022-09-23T01:35:30.450Z,6.00
2022-09-23T01:38:10.387Z,6.43
2022-09-23T01:40:52.064Z,6.35
2022-09-23T01:43:26.847Z,6.10
2022-09-23T01:46:00.439Z,6.22
2022-09-23T01:48:37.400Z,6.68
2022-09-23T01:51:11.648Z,6.97
2022-09-23T01:53:46.552Z,9.77
2022-09-23T01:56:19.831Z,5.07
2022-09-23T01:58:55.081Z,6.00
2022-09-23T02:01:32.191Z,7.32
2022-09-23T02:04:08.653Z,8.52
2022-09-23T02:06:45.396Z,6.38
2022-09-23T02:09:17.877Z,5.43
2022-09-23T02:11:49.570Z,6.85
2022-09-23T02:14:24.468Z,9.60
2022-09-23T02:16:57.059Z,6.93
2022-09-23T02:19:35.380Z,8.65
2022-09-23T02:22:09.916Z,6.97
2022-09-23T02:24:40.896Z,5.05
2022-09-23T02:27:20.077Z,6.50
2022-09-23T02:29:56.607Z,9.02
2022-09-23T02:32:32.970Z,8.32
2022-09-23T02:35:15.744Z,6.97
2022-09-23T02:37:55.208Z,5.10
2022-09-23T02:40:33.080Z,5.10
2022-09-23T02:43:10.105Z,6.63
2022-09-23T02:45:39.808Z,5.53
2022-09-23T02:48:14.767Z,7.28
2022-09-23T02:50:47.861Z,7.00
2022-09-23T02:53:17.617Z,7.93
2022-09-23T02:58:16.143Z,5.65
2022-09-23T03:00:55.968Z,7.97
2022-09-23T03:03:37.787Z,5.55
2022-09-23T03:06:21.222Z,8.55
2022-09-23T03:08:55.809Z,4.15
2022-09-23T03:11:26.205Z,7.20
2022-09-23T03:14:08.719Z,6.82
2022-09-23T03:16:43.919Z,8.13
2022-09-23T03:19:23.984Z,6.80
2022-09-23T03:22:03.011Z,8.07
2022-09-23T03:24:34.608Z,7.60
2022-09-23T03:27:08.343Z,6.05
2022-09-23T03:29:37.901Z,8.13
2022-09-23T03:32:08.288Z,9.70
2022-09-23T03:34:39.400Z,5.72
2022-09-23T03:37:18.844Z,8.73
2022-09-23T03:39:53.786Z,12.13
2022-09-23T03:42:26.191Z,6.57
2022-09-23T03:44:57.522Z,7.10
2022-09-23T03:47:31.084Z,7.25
2022-09-23T03:50:00.190Z,5.80
2022-09-23T03:52:30.785Z,5.55
2022-09-23T03:54:59.802Z,6.82
2022-09-23T03:57:28.990Z,6.00
2022-09-23T03:59:58.219Z,8.50
2022-09-23T04:02:27.697Z,4.85
2022-09-23T04:04:57.312Z,6.28
2022-09-23T04:07:26.708Z,6.32
2022-09-23T04:09:57.079Z,7.20
2022-09-23T04:12:26.112Z,5.80
2022-09-23T04:14:55.303Z,10.45
2022-09-23T04:17:24.773Z,7.45
2022-09-23T04:19:53.838Z,6.13
2022-09-23T04:22:23.172Z,6.68
2022-09-23T04:24:52.362Z,5.70
2022-09-23T04:27:22.873Z,11.02
2022-09-23T04:29:52.531Z,6.65
2022-09-23T04:32:21.689Z,5.40
2022-09-23T04:34:51.499Z,5.20
2022-09-23T04:37:20.928Z,5.72
2022-09-23T04:39:49.975Z,5.65
2022-09-23T04:42:18.961Z,5.55
2022-09-23T04:44:49.571Z,5.80
2022-09-23T04:47:19.364Z,9.90
2022-09-23T04:49:48.359Z,6.13
2022-09-23T04:52:17.569Z,7.78
2022-09-23T04:54:46.556Z,6.30
2022-09-23T04:57:16.124Z,7.60
2022-09-23T05:02:15.938Z,5.63
2022-09-23T05:04:45.202Z,5.38
2022-09-23T05:07:15.381Z,6.75
2022-09-23T05:09:44.378Z,8.07
2022-09-23T05:12:13.591Z,5.68
2022-09-23T05:14:42.832Z,5.47
2022-09-23T05:17:11.872Z,5.60
2022-09-23T05:19:42.580Z,9.70
2022-09-23T05:22:11.950Z,6.85
2022-09-23T05:24:40.956Z,5.28
2022-09-23T05:27:10.078Z,8.18
2022-09-23T05:29:39.800Z,6.35
2022-09-23T05:32:09.836Z,4.93
2022-09-23T05:34:39.147Z,5.50
2022-09-23T05:37:10.007Z,6.20
2022-09-23T05:39:39.273Z,5.40
2022-09-23T05:42:08.621Z,5.50
2022-09-23T05:44:37.808Z,4.82
2022-09-23T05:47:07.359Z,6.53
2022-09-23T05:49:55.592Z,5.88
2022-09-23T05:52:27.230Z,4.25
2022-09-23T05:54:56.227Z,8.80
2022-09-23T05:57:25.255Z,9.07
2022-09-23T05:59:54.448Z,5.72
2022-09-23T06:02:23.717Z,5.07
2022-09-23T06:04:53.017Z,7.57
2022-09-23T06:07:22.319Z,6.47
2022-09-23T06:09:54.049Z,6.05
2022-09-23T06:12:25.138Z,6.53
2022-09-23T06:14:54.388Z,4.57
2022-09-23T06:17:23.394Z,11.85
2022-09-23T06:19:52.589Z,4.53
2022-09-23T06:22:21.691Z,5.43
2022-09-23T06:24:52.070Z,5.30
2022-09-23T06:27:21.349Z,5.03
2022-09-23T06:29:52.510Z,5.40
2022-09-23T06:32:21.748Z,3.72
2022-09-23T06:34:52.155Z,5.15
2022-09-23T06:37:21.366Z,6.10
2022-09-23T06:39:54.784Z,5.40
2022-09-23T06:42:24.023Z,9.55
2022-09-23T06:44:53.292Z,5.25
2022-09-23T06:47:22.336Z,3.75
2022-09-23T06:49:51.602Z,5.68
2022-09-23T06:52:21.161Z,5.30
2022-09-23T06:54:51.708Z,3.42
2022-09-23T06:57:22.423Z,3.03
2022-09-23T06:59:51.423Z,3.58
2022-09-23T07:02:20.547Z,4.50
2022-09-23T07:04:49.831Z,9.60
2022-09-23T07:07:18.875Z,2.47
2022-09-23T07:09:49.496Z,3.78
2022-09-23T07:12:20.335Z,6.22
2022-09-23T07:14:49.327Z,3.88
2022-09-23T07:17:18.307Z,2.70
2022-09-23T07:19:47.509Z,3.80
2022-09-23T07:22:16.510Z,3.38
2022-09-23T07:24:46.640Z,2.72
2022-09-23T07:27:16.655Z,4.72
2022-09-23T07:29:49.011Z,2.60
2022-09-23T07:32:19.208Z,3.95
2022-09-23T07:34:48.791Z,2.08
2022-09-23T07:39:47.664Z,3.05
2022-09-23T07:42:16.874Z,2.97
2022-09-23T07:44:47.431Z,3.05
2022-09-23T07:47:17.758Z,3.67
2022-09-23T07:49:46.860Z,2.70
2022-09-23T07:52:15.956Z,3.75
2022-09-23T07:54:47.490Z,4.35
2022-09-23T07:57:16.580Z,3.67
2022-09-23T07:59:46.976Z,4.38
2022-09-23T08:02:16.442Z,4.70
2022-09-23T08:04:46.326Z,2.45
2022-09-23T08:07:15.544Z,1.75
2022-09-23T08:12:17.857Z,1.63
2022-09-23T08:14:48.458Z,5.20
2022-09-23T08:17:17.455Z,1.83
2022-09-23T08:19:46.705Z,2.60
2022-09-23T08:22:16.166Z,2.20
2022-09-23T08:27:14.515Z,2.33
2022-09-23T08:29:43.515Z,3.88
2022-09-23T08:32:13.883Z,3.30
2022-09-23T08:34:43.150Z,2.17
2022-09-23T08:37:12.207Z,2.72
2022-09-23T08:39:41.304Z,3.05
2022-09-23T08:44:49.975Z,2.47
2022-09-23T08:47:25.642Z,3.15
2022-09-23T08:50:07.429Z,1.75
2022-09-23T08:52:41.081Z,1.90
2022-09-23T08:55:13.794Z,1.50
2022-09-23T08:58:23.308Z,3.72
2022-09-23T09:00:47.953Z,2.55
2022-09-23T09:03:24.841Z,4.93
2022-09-23T09:05:57.113Z,4.05
2022-09-23T09:08:32.134Z,2.60
2022-09-23T09:11:03.112Z,1.85
2022-09-23T09:13:34.503Z,6.22
2022-09-23T09:16:42.200Z,2.63
2022-09-23T09:19:22.327Z,4.47
2022-09-23T09:21:55.873Z,4.13
2022-09-23T09:24:36.173Z,2.60
2022-09-23T09:27:12.660Z,2.03
2022-09-23T09:29:50.050Z,2.78
2022-09-23T09:32:38.288Z,2.30
2022-09-23T09:35:21.020Z,2.35
2022-09-23T09:37:50.373Z,2.63
2022-09-23T09:40:20.608Z,2.78
2022-09-23T09:42:51.651Z,2.90
2022-09-23T09:45:33.593Z,1.88
2022-09-23T09:48:12.078Z,2.72
2022-09-23T09:50:49.268Z,6.22
2022-09-23T09:53:26.379Z,4.03
2022-09-23T09:56:05.719Z,1.70
2022-09-23T09:58:43.966Z,2.45
2022-09-23T10:01:24.886Z,2.60
2022-09-23T10:03:59.087Z,2.17
2022-09-23T10:06:32.917Z,3.55
2022-09-23T10:09:13.974Z,2.60
2022-09-23T10:11:45.138Z,2.17
2022-09-23T10:14:18.242Z,2.33
2022-09-23T10:16:49.847Z,1.48
2022-09-23T10:19:28.314Z,1.95
2022-09-23T10:22:04.870Z,2.30
2022-09-23T10:24:36.488Z,2.75
2022-09-23T10:27:09.496Z,1.60
2022-09-23T10:29:41.074Z,2.58
2022-09-23T10:32:25.728Z,2.35
2022-09-23T10:34:58.207Z,2.63
2022-09-23T10:37:39.623Z,1.48
2022-09-23T10:40:34.993Z,2.65
2022-09-23T10:43:43.141Z,1.58
2022-09-23T10:46:36.127Z,2.70
2022-09-23T10:49:23.339Z,3.72
2022-09-23T10:52:03.579Z,3.22
2022-09-23T10:54:46.634Z,2.75
2022-09-23T10:57:42.081Z,3.40
2022-09-23T11:00:23.342Z,2.88
2022-09-23T11:03:32.176Z,2.65
2022-09-23T11:06:13.160Z,1.65
2022-09-23T11:09:04.889Z,3.00
2022-09-23T11:11:46.114Z,3.20
2022-09-23T11:14:28.966Z,2.05
2022-09-23T11:17:25.967Z,2.22
2022-09-23T11:20:32.778Z,3.75
2022-09-23T11:23:21.811Z,2.90
2022-09-23T11:25:58.443Z,3.22
2022-09-23T11:28:48.503Z,1.67
2022-09-23T11:31:33.205Z,1.98
2022-09-23T11:34:27.697Z,2.13
2022-09-23T11:37:04.693Z,1.50
2022-09-23T11:39:39.064Z,3.80
2022-09-23T11:42:18.949Z,1.42
2022-09-23T11:44:57.801Z,2.28
2022-09-23T11:47:33.513Z,1.73
2022-09-23T11:50:15.878Z,2.38
2022-09-23T11:52:52.343Z,1.63
2022-09-23T11:55:27.181Z,2.05
2022-09-23T11:58:00.262Z,2.08
2022-09-23T12:00:36.988Z,1.50
2022-09-23T12:03:15.620Z,4.38
2022-09-23T12:05:49.686Z,3.53
2022-09-23T12:08:26.754Z,1.42
2022-09-23T12:11:06.068Z,2.88
2022-09-23T12:16:32.360Z,4.60
2022-09-23T12:19:14.993Z,1.58
2022-09-23T12:22:05.003Z,0.90
2022-09-23T12:24:58.678Z,1.33
2022-09-23T12:27:37.240Z,1.23
2022-09-23T12:30:13.967Z,2.63
2022-09-23T12:32:45.182Z,3.22
2022-09-23T12:35:26.647Z,2.17
2022-09-23T12:37:56.344Z,2.00
2022-09-23T12:40:34.209Z,3.30
2022-09-23T12:43:04.321Z,4.43
2022-09-23T12:45:40.147Z,1.55
2022-09-23T12:48:45.060Z,1.85
2022-09-23T12:51:18.190Z,5.15
2022-09-23T12:54:20.183Z,1.17
2022-09-23T12:57:36.437Z,2.25
2022-09-23T13:00:26.868Z,1.50
2022-09-23T13:03:17.516Z,1.50
2022-09-23T13:06:10.316Z,2.33
2022-09-23T13:08:41.589Z,2.75
2022-09-23T13:11:27.139Z,1.33
2022-09-23T13:14:00.682Z,1.80
2022-09-23T13:16:34.292Z,1.20
2022-09-23T13:19:04.494Z,2.40
2022-09-23T13:22:11.113Z,2.97
2022-09-23T13:24:47.598Z,2.67
2022-09-23T13:27:22.789Z,1.20
2022-09-23T13:29:58.956Z,1.83
2022-09-23T13:32:33.049Z,2.70
2022-09-23T13:35:07.121Z,3.05
2022-09-23T13:37:45.475Z,3.17
2022-09-23T13:40:25.027Z,1.65
2022-09-23T13:42:59.090Z,1.70
2022-09-23T13:45:30.975Z,1.10
2022-09-23T13:48:06.097Z,1.90
2022-09-23T13:50:38.945Z,2.22
2022-09-23T13:53:11.503Z,2.25
2022-09-23T13:55:42.029Z,1.65
2022-09-23T13:58:20.039Z,3.03
2022-09-23T14:00:50.032Z,2.00
2022-09-23T14:03:24.919Z,1.15
2022-09-23T14:05:56.371Z,1.73
2022-09-23T14:08:26.373Z,2.20
2022-09-23T14:10:58.182Z,2.55
2022-09-23T14:13:32.189Z,1.50
2022-09-23T14:16:04.213Z,1.55
2022-09-23T14:18:40.672Z,2.67
2022-09-23T14:21:27.725Z,2.72
2022-09-23T14:23:57.603Z,3.78
2022-09-23T14:26:28.328Z,1.20
2022-09-23T14:28:57.732Z,1.52
2022-09-23T14:31:26.972Z,1.50
2022-09-23T14:36:42.855Z,1.60
2022-09-23T14:39:13.648Z,2.70
2022-09-23T14:41:47.056Z,3.67
2022-09-23T14:44:22.240Z,2.05
2022-09-23T14:46:57.925Z,2.55
2022-09-23T14:49:28.542Z,5.38
2022-09-23T14:52:00.826Z,4.30
2022-09-23T14:54:35.781Z,7.97
2022-09-23T14:57:25.616Z,3.33
2022-09-23T14:59:56.716Z,3.95
2022-09-23T15:02:37.769Z,1.67
2022-09-23T15:05:19.914Z,3.63
2022-09-23T15:07:53.808Z,5.65
2022-09-23T15:10:31.355Z,5.20
2022-09-23T15:13:08.486Z,6.97
2022-09-23T15:15:38.502Z,5.43
2022-09-23T15:18:16.526Z,5.45
2022-09-23T15:20:52.214Z,6.10
2022-09-23T15:23:35.830Z,3.25
2022-09-23T15:26:10.958Z,3.35
2022-09-23T15:28:42.492Z,4.35
2022-09-23T15:31:13.430Z,5.38
2022-09-23T15:33:42.591Z,4.22
2022-09-23T15:36:18.447Z,6.13
2022-09-23T15:38:48.440Z,6.40
2022-09-23T15:41:18.241Z,4.38
2022-09-23T15:43:48.737Z,8.65
2022-09-23T15:46:23.239Z,6.43
2022-09-23T15:48:59.051Z,3.65
2022-09-23T15:51:31.017Z,7.32
2022-09-23T15:54:00.300Z,8.40
2022-09-23T15:56:29.444Z,10.18
2022-09-23T15:59:00.586Z,9.68
2022-09-23T16:01:32.353Z,6.95
2022-09-23T16:04:03.920Z,7.05
2022-09-23T16:06:36.083Z,9.38
2022-09-23T16:09:05.764Z,9.38
2022-09-23T16:11:35.833Z,6.53
2022-09-23T16:14:07.004Z,9.20
2022-09-23T16:16:36.179Z,8.30
2022-09-23T16:19:05.251Z,10.18
2022-09-23T16:21:35.271Z,7.65
2022-09-23T16:24:04.484Z,8.40
2022-09-23T16:26:36.179Z,9.18
2022-09-23T16:29:06.864Z,9.63
2022-09-23T16:31:36.219Z,10.07
2022-09-23T16:34:05.222Z,8.90
2022-09-23T16:36:36.151Z,8.43
2022-09-23T16:39:07.527Z,10.63
2022-09-23T16:41:37.018Z,9.68
2022-09-23T16:44:10.751Z,12.20
2022-09-23T16:46:43.017Z,11.98
2022-09-23T16:49:13.783Z,11.65
2022-09-23T16:51:43.193Z,14.93
2022-09-23T16:54:13.783Z,10.82
2022-09-23T16:56:45.129Z,13.80
2022-09-23T16:59:17.609Z,9.27
2022-09-23T17:02:04.373Z,11.52
2022-09-23T17:04:33.804Z,13.75
2022-09-23T17:07:02.779Z,10.23
2022-09-23T17:09:33.018Z,10.05
2022-09-23T17:12:12.534Z,14.80
2022-09-23T17:14:43.849Z,13.52
2022-09-23T17:17:14.797Z,20.80
2022-09-23T17:19:43.758Z,11.63
2022-09-23T17:22:12.801Z,16.38
2022-09-23T17:24:42.867Z,12.20
2022-09-23T17:27:12.123Z,11.30
2022-09-23T17:29:44.547Z,16.23
2022-09-23T17:32:13.976Z,16.23
2022-09-23T17:34:44.095Z,12.15
2022-09-23T17:37:13.160Z,10.43
2022-09-23T17:39:42.839Z,8.88
2022-09-23T17:42:11.911Z,7.10
2022-09-23T17:44:42.573Z,7.07
2022-09-23T17:47:11.867Z,9.60
2022-09-23T17:49:41.030Z,8.10
2022-09-23T17:52:10.616Z,12.02
2022-09-23T17:54:40.038Z,10.55
2022-09-23T17:57:09.174Z,11.85
2022-09-23T17:59:38.239Z,9.32
2022-09-23T18:02:11.565Z,10.00
2022-09-23T18:04:44.056Z,9.98
2022-09-23T18:07:13.306Z,10.55
2022-09-23T18:09:42.388Z,15.50
2022-09-23T18:12:11.868Z,12.63
2022-09-23T18:14:41.079Z,12.48
2022-09-23T18:17:11.958Z,13.82
2022-09-23T18:19:41.113Z,12.27
2022-09-23T18:22:10.400Z,12.57
2022-09-23T18:24:41.262Z,9.55
2022-09-23T18:27:10.404Z,9.23
2022-09-23T18:29:39.625Z,8.95
2022-09-23T18:34:43.738Z,8.73
2022-09-23T18:37:15.993Z,6.97
2022-09-23T18:39:45.702Z,8.77
2022-09-23T18:47:35.232Z,6.60
2022-09-23T18:50:21.860Z,9.35
2022-09-23T18:52:51.919Z,6.28
2022-09-23T18:55:21.449Z,6.30
2022-09-23T19:00:20.069Z,7.95
2022-09-23T19:02:53.801Z,11.90
2022-09-23T19:05:23.053Z,9.00
2022-09-23T19:07:52.360Z,8.43
2022-09-23T19:10:21.672Z,11.55
2022-09-23T19:15:20.093Z,13.98
2022-09-23T19:17:49.475Z,12.70
2022-09-23T19:20:20.993Z,12.18
2022-09-23T19:22:50.386Z,11.68
2022-09-23T19:27:51.625Z,17.38
2022-09-23T19:30:21.287Z,21.08
2022-09-23T19:32:50.564Z,21.40
2022-09-23T19:35:21.001Z,24.60
2022-09-23T19:37:50.737Z,23.42
2022-09-23T19:40:20.282Z,23.02
2022-09-23T19:45:20.910Z,24.85
2022-09-23T19:47:55.573Z,22.98
2022-09-23T19:50:26.300Z,20.88
2022-09-23T19:52:55.365Z,19.02
2022-09-23T19:55:24.834Z,15.23
2022-09-23T20:00:23.770Z,18.02
2022-09-23T20:02:53.137Z,17.17
2022-09-23T20:07:53.191Z,16.30
2022-09-23T20:10:23.222Z,17.58
2022-09-23T20:12:52.422Z,17.67
2022-09-23T20:15:23.291Z,17.65
2022-09-23T20:17:54.662Z,21.27
2022-09-23T20:20:24.864Z,20.60
2022-09-23T20:22:55.403Z,18.23
2022-09-23T20:25:24.766Z,21.27
2022-09-23T20:27:53.573Z,14.35
2022-09-23T20:30:22.878Z,17.52
2022-09-23T20:32:52.082Z,18.38
2022-09-23T20:35:21.537Z,23.83
2022-09-23T20:37:50.650Z,20.98
2022-09-23T20:40:23.467Z,25.38
2022-09-23T20:42:52.956Z,22.95
2022-09-23T20:45:22.351Z,25.25
2022-09-23T20:47:51.281Z,22.17
2022-09-23T20:50:20.612Z,19.90
2022-09-23T20:52:49.735Z,20.33
2022-09-23T20:55:18.700Z,22.92
2022-09-23T20:57:50.775Z,24.52
2022-09-23T21:00:20.217Z,24.23
2022-09-23T21:02:49.178Z,25.58
2022-09-23T21:05:18.527Z,20.42
2022-09-23T21:07:48.268Z,25.02
2022-09-23T21:10:17.533Z,23.15
2022-09-23T21:12:50.499Z,21.42
2022-09-23T21:15:21.351Z,24.50
2022-09-23T21:17:50.548Z,22.48
2022-09-23T21:20:19.504Z,27.00
2022-09-23T21:22:51.319Z,21.73
2022-09-23T21:25:29.902Z,25.85
2022-09-23T21:28:01.868Z,25.50
2022-09-23T21:30:32.269Z,22.45
2022-09-23T21:33:01.923Z,20.15
2022-09-23T21:35:31.242Z,23.77
2022-09-23T21:38:01.778Z,21.80
2022-09-23T21:40:48.167Z,25.02
2022-09-23T21:43:17.270Z,20.35
2022-09-23T21:45:48.246Z,18.20
2022-09-23T21:48:17.381Z,18.40
2022-09-23T21:50:54.592Z,16.83
2022-09-23T21:53:24.074Z,16.83
2022-09-23T21:55:53.342Z,20.05
2022-09-23T21:58:22.676Z,19.58
2022-09-23T22:03:22.340Z,16.55
2022-09-23T22:06:05.195Z,21.77
2022-09-23T22:08:37.061Z,15.00
2022-09-23T22:11:07.797Z,23.55
2022-09-23T22:13:36.972Z,18.38
2022-09-23T22:16:07.692Z,17.25
2022-09-23T22:18:36.666Z,25.33
2022-09-23T22:21:06.294Z,20.05
2022-09-23T22:23:35.243Z,23.05
2022-09-23T22:26:04.926Z,20.23
2022-09-23T22:28:51.665Z,22.88
2022-09-23T22:31:48.091Z,18.35
2022-09-23T22:34:47.444Z,15.35
2022-09-23T22:37:06.629Z,14.85
2022-09-23T22:39:35.760Z,20.13
2022-09-23T22:42:05.356Z,18.23
2022-09-23T22:44:34.321Z,18.77
2022-09-23T22:47:04.934Z,20.90
2022-09-23T22:49:33.931Z,24.48
2022-09-23T22:52:07.933Z,25.20
2022-09-23T22:54:37.892Z,25.13
2022-09-23T22:57:07.845Z,20.02
2022-09-23T22:59:37.291Z,26.23
2022-09-23T23:02:08.285Z,23.65
2022-09-23T23:04:37.514Z,23.65
2022-09-23T23:07:06.758Z,18.05
2022-09-23T23:09:36.142Z,21.15
2022-09-23T23:12:05.289Z,18.50
2022-09-23T23:14:34.179Z,17.40
2022-09-23T23:17:07.302Z,26.70
2022-09-23T23:19:38.115Z,25.98
2022-09-23T23:22:07.453Z,17.33
2022-09-23T23:24:36.458Z,17.63
2022-09-23T23:27:07.458Z,22.95
2022-09-23T23:29:36.733Z,24.50
2022-09-23T23:32:07.686Z,25.58
2022-09-23T23:34:38.015Z,21.08
2022-09-23T23:37:07.209Z,18.00
2022-09-23T23:39:36.278Z,20.92
2022-09-23T23:42:05.800Z,19.40
2022-09-23T23:44:35.049Z,21.80
2022-09-23T23:47:04.513Z,21.42
2022-09-23T23:49:33.489Z,18.95
2022-09-23T23:52:04.305Z,21.65
2022-09-23T23:54:33.452Z,19.90
2022-09-23T23:57:02.421Z,24.13
2022-09-23T23:59:31.610Z,18.58
